createdAt,value
2018-07-20T00:00:59.197Z,4.20
2018-07-20T00:03:26.675Z,4.43
2018-07-20T00:05:54.143Z,4.33
2018-07-20T00:08:21.682Z,4.43
2018-07-20T00:10:49.239Z,4.10
2018-07-20T00:13:16.716Z,4.40
2018-07-20T00:15:44.194Z,4.60
2018-07-20T00:20:46.188Z,4.20
2018-07-20T00:23:13.694Z,4.20
2018-07-20T00:25:41.186Z,3.90
2018-07-20T00:28:08.730Z,4.77
2018-07-20T00:30:36.196Z,4.30
2018-07-20T00:33:03.723Z,4.10
2018-07-20T00:35:31.154Z,4.50
2018-07-20T00:37:58.628Z,3.87
2018-07-20T00:40:26.122Z,4.23
2018-07-20T00:42:53.600Z,4.10
2018-07-20T00:45:21.017Z,4.20
2018-07-20T00:47:48.474Z,4.53
2018-07-20T00:50:15.940Z,4.17
2018-07-20T00:52:43.350Z,4.30
2018-07-20T00:55:10.841Z,4.50
2018-07-20T01:00:12.458Z,4.37
2018-07-20T01:02:39.879Z,4.23
2018-07-20T01:05:07.412Z,3.87
2018-07-20T01:07:34.822Z,4.37
2018-07-20T01:10:02.270Z,4.20
2018-07-20T01:12:29.683Z,4.50
2018-07-20T01:14:57.151Z,3.97
2018-07-20T01:17:24.574Z,4.67
2018-07-20T01:19:52.089Z,4.20
2018-07-20T01:22:19.568Z,4.13
2018-07-20T01:24:47.045Z,4.20
2018-07-20T01:27:14.471Z,4.43
2018-07-20T01:29:41.845Z,4.30
2018-07-20T01:32:09.901Z,4.13
2018-07-20T01:34:38.149Z,4.30
2018-07-20T01:37:05.663Z,4.00
2018-07-20T01:39:33.161Z,4.47
2018-07-20T01:42:00.649Z,4.30
2018-07-20T01:44:28.107Z,4.30
2018-07-20T01:46:55.524Z,4.50
2018-07-20T01:49:23.021Z,4.30
2018-07-20T01:51:50.401Z,4.20
2018-07-20T01:54:17.819Z,4.70
2018-07-20T01:56:45.192Z,4.23
2018-07-20T01:59:12.656Z,4.27
2018-07-20T02:01:40.105Z,4.40
2018-07-20T02:04:07.571Z,4.33
2018-07-20T02:06:35.023Z,3.77
2018-07-20T02:09:02.559Z,4.10
2018-07-20T02:11:29.962Z,4.30
2018-07-20T02:13:57.427Z,4.47
2018-07-20T02:16:24.885Z,4.40
2018-07-20T02:18:52.341Z,4.43
2018-07-20T02:21:19.805Z,4.30
2018-07-20T02:23:47.270Z,4.23
2018-07-20T02:26:14.726Z,4.10
2018-07-20T02:28:42.163Z,4.20
2018-07-20T02:31:09.600Z,4.10
2018-07-20T02:33:37.062Z,4.23
2018-07-20T02:36:04.787Z,4.43
2018-07-20T02:38:32.239Z,4.20
2018-07-20T02:40:59.747Z,3.83
2018-07-20T02:43:27.214Z,4.10
2018-07-20T02:45:54.677Z,4.23
2018-07-20T02:48:22.129Z,3.97
2018-07-20T02:50:49.610Z,4.17
2018-07-20T02:53:16.984Z,4.27
2018-07-20T02:55:44.458Z,4.13
2018-07-20T02:58:12.009Z,4.00
2018-07-20T03:00:39.499Z,4.40
2018-07-20T03:03:06.964Z,4.43
2018-07-20T03:05:34.436Z,4.20
2018-07-20T03:08:01.906Z,4.30
2018-07-20T03:10:29.351Z,4.00
2018-07-20T03:12:57.468Z,4.17
2018-07-20T03:15:24.936Z,4.30
2018-07-20T03:17:52.414Z,4.10
2018-07-20T03:20:19.872Z,4.50
2018-07-20T03:22:47.317Z,4.40
2018-07-20T03:25:14.756Z,4.30
2018-07-20T03:27:42.232Z,4.20
2018-07-20T03:30:09.698Z,4.10
2018-07-20T03:32:37.219Z,4.30
2018-07-20T03:35:04.866Z,4.27
2018-07-20T03:37:32.318Z,4.50
2018-07-20T03:42:34.191Z,4.50
2018-07-20T03:45:01.632Z,4.37
2018-07-20T03:47:29.810Z,4.40
2018-07-20T03:49:57.249Z,4.47
2018-07-20T03:52:24.734Z,4.60
2018-07-20T03:54:52.172Z,4.67
2018-07-20T03:57:19.663Z,4.67
2018-07-20T03:59:47.115Z,4.93
2018-07-20T04:02:14.573Z,4.50
2018-07-20T04:04:42.010Z,4.40
2018-07-20T04:07:09.491Z,4.60
2018-07-20T04:09:36.972Z,4.67
2018-07-20T04:12:04.408Z,5.00
2018-07-20T04:14:31.870Z,4.57
2018-07-20T04:16:59.362Z,4.97
2018-07-20T04:19:26.821Z,5.10
2018-07-20T04:21:54.284Z,5.00
2018-07-20T04:24:21.739Z,4.50
2018-07-20T04:26:49.969Z,4.33
2018-07-20T04:29:17.418Z,5.00
2018-07-20T04:31:44.853Z,4.97
2018-07-20T04:34:12.217Z,5.37
2018-07-20T04:36:39.665Z,4.77
2018-07-20T04:39:09.291Z,5.03
2018-07-20T04:41:36.734Z,5.30
2018-07-20T04:44:04.237Z,4.93
2018-07-20T04:46:31.701Z,5.20
2018-07-20T04:48:59.197Z,4.93
2018-07-20T04:51:26.664Z,5.10
2018-07-20T04:53:54.182Z,5.03
2018-07-20T04:56:21.639Z,5.10
2018-07-20T04:58:49.112Z,5.17
2018-07-20T05:01:16.461Z,5.30
2018-07-20T05:03:43.941Z,4.67
2018-07-20T05:06:11.384Z,4.87
2018-07-20T05:08:38.756Z,5.37
2018-07-20T05:11:06.179Z,5.00
2018-07-20T05:13:33.674Z,4.80
2018-07-20T05:16:01.249Z,5.13
2018-07-20T05:18:28.774Z,5.30
2018-07-20T05:20:56.316Z,5.23
2018-07-20T05:23:23.720Z,4.67
2018-07-20T05:25:51.143Z,5.10
2018-07-20T05:28:18.638Z,5.03
2018-07-20T05:30:46.183Z,5.10
2018-07-20T05:33:13.663Z,5.00
2018-07-20T05:35:41.095Z,5.20
2018-07-20T05:38:09.251Z,5.13
2018-07-20T05:40:36.745Z,5.30
2018-07-20T05:43:04.244Z,5.20
2018-07-20T05:45:31.660Z,5.17
2018-07-20T05:47:59.100Z,4.90
2018-07-20T05:50:26.572Z,5.27
2018-07-20T05:52:54.184Z,4.73
2018-07-20T05:55:21.676Z,5.00
2018-07-20T05:57:49.114Z,5.00
2018-07-20T06:00:16.698Z,5.00
2018-07-20T06:02:44.099Z,4.60
2018-07-20T06:05:11.490Z,5.53
2018-07-20T06:07:38.961Z,5.03
2018-07-20T06:10:06.466Z,5.53
2018-07-20T06:12:33.887Z,5.23
2018-07-20T06:15:01.363Z,5.13
2018-07-20T06:17:28.927Z,4.70
2018-07-20T06:19:56.382Z,5.03
2018-07-20T06:22:23.879Z,4.77
2018-07-20T06:24:51.357Z,4.33
2018-07-20T06:27:18.917Z,4.53
2018-07-20T06:29:46.454Z,4.43
2018-07-20T06:32:13.884Z,4.60
2018-07-20T06:34:41.327Z,5.17
2018-07-20T06:37:08.895Z,4.83
2018-07-20T06:39:36.342Z,4.90
2018-07-20T06:42:03.908Z,4.57
2018-07-20T06:44:31.444Z,4.80
2018-07-20T06:46:58.941Z,4.33
2018-07-20T06:49:26.429Z,4.17
2018-07-20T06:51:53.947Z,4.63
2018-07-20T06:54:21.397Z,4.60
2018-07-20T06:56:48.950Z,3.87
2018-07-20T06:59:16.419Z,4.97
2018-07-20T07:01:43.919Z,3.97
2018-07-20T07:04:11.385Z,4.00
2018-07-20T07:06:38.852Z,4.20
2018-07-20T07:09:07.257Z,4.87
2018-07-20T07:11:34.716Z,4.60
2018-07-20T07:14:02.207Z,4.60
2018-07-20T07:16:29.691Z,4.70
2018-07-20T07:18:57.229Z,4.40
2018-07-20T07:21:24.753Z,4.17
2018-07-20T07:23:52.237Z,4.70
2018-07-20T07:26:19.764Z,4.60
2018-07-20T07:28:47.270Z,4.30
2018-07-20T07:31:14.789Z,4.20
2018-07-20T07:33:42.270Z,4.00
2018-07-20T07:36:09.774Z,4.03
2018-07-20T07:38:37.276Z,4.77
2018-07-20T07:41:04.775Z,4.20
2018-07-20T07:43:32.268Z,4.40
2018-07-20T07:45:59.728Z,5.23
2018-07-20T07:48:27.243Z,4.60
2018-07-20T07:50:54.797Z,4.53
2018-07-20T07:53:22.312Z,4.50
2018-07-20T07:55:49.847Z,3.93
2018-07-20T07:58:17.311Z,4.43
2018-07-20T08:00:44.723Z,4.80
2018-07-20T08:03:12.253Z,4.50
2018-07-20T08:05:39.805Z,3.77
2018-07-20T08:08:07.261Z,4.07
2018-07-20T08:10:34.812Z,3.70
2018-07-20T08:13:02.292Z,4.77
2018-07-20T08:15:29.943Z,4.60
2018-07-20T08:17:57.486Z,3.90
2018-07-20T08:20:25.023Z,3.77
2018-07-20T08:22:52.470Z,3.60
2018-07-20T08:25:19.854Z,3.90
2018-07-20T08:27:47.320Z,4.20
2018-07-20T08:30:14.786Z,3.70
2018-07-20T08:32:42.270Z,3.80
2018-07-20T08:35:09.826Z,3.80
2018-07-20T08:37:37.316Z,4.23
2018-07-20T08:40:04.893Z,4.07
2018-07-20T08:42:32.331Z,4.00
2018-07-20T08:44:59.764Z,3.70
2018-07-20T08:47:27.300Z,3.80
2018-07-20T08:49:54.922Z,3.73
2018-07-20T08:52:22.416Z,4.40
2018-07-20T08:54:49.874Z,4.13
2018-07-20T08:57:17.369Z,3.83
2018-07-20T08:59:44.888Z,3.90
2018-07-20T09:02:12.478Z,3.90
2018-07-20T09:04:39.980Z,4.03
2018-07-20T09:07:07.543Z,4.97
2018-07-20T09:09:35.036Z,3.93
2018-07-20T09:12:02.489Z,4.23
2018-07-20T09:14:29.953Z,3.90
2018-07-20T09:16:57.501Z,3.50
2018-07-20T09:19:25.013Z,3.33
2018-07-20T09:21:52.428Z,3.50
2018-07-20T09:24:19.902Z,3.33
2018-07-20T09:26:47.405Z,3.60
2018-07-20T09:29:14.894Z,3.37
2018-07-20T09:31:42.359Z,3.60
2018-07-20T09:34:09.946Z,3.57
2018-07-20T09:36:37.360Z,3.73
2018-07-20T09:39:07.507Z,3.30
2018-07-20T09:41:35.026Z,3.47
2018-07-20T09:44:02.554Z,3.50
2018-07-20T09:46:30.046Z,3.80
2018-07-20T09:48:57.552Z,3.40
2018-07-20T09:51:25.040Z,3.83
2018-07-20T09:53:52.462Z,3.30
2018-07-20T09:56:19.915Z,3.30
2018-07-20T09:58:47.357Z,3.33
2018-07-20T10:01:14.785Z,3.30
2018-07-20T10:03:42.238Z,3.27
2018-07-20T10:06:09.738Z,3.37
2018-07-20T10:08:37.155Z,3.57
2018-07-20T10:11:04.608Z,3.67
2018-07-20T10:13:32.109Z,3.57
2018-07-20T10:15:59.525Z,3.50
2018-07-20T10:18:27.005Z,3.30
2018-07-20T10:20:54.437Z,3.43
2018-07-20T10:23:21.883Z,3.57
2018-07-20T10:25:49.468Z,3.60
2018-07-20T10:28:17.021Z,3.23
2018-07-20T10:30:44.713Z,3.53
2018-07-20T10:33:12.126Z,3.20
2018-07-20T10:35:39.618Z,3.10
2018-07-20T10:38:07.040Z,3.33
2018-07-20T10:40:34.872Z,3.20
2018-07-20T10:43:02.443Z,3.83
2018-07-20T10:45:29.817Z,4.07
2018-07-20T10:47:57.330Z,3.40
2018-07-20T10:50:25.398Z,3.23
2018-07-20T10:52:52.856Z,3.63
2018-07-20T10:55:20.451Z,3.67
2018-07-20T10:57:48.240Z,3.53
2018-07-20T11:00:15.763Z,4.00
2018-07-20T11:02:43.272Z,3.63
2018-07-20T11:05:10.651Z,3.67
2018-07-20T11:07:38.127Z,3.20
2018-07-20T11:10:05.826Z,3.60
2018-07-20T11:12:33.324Z,3.67
2018-07-20T11:15:00.791Z,3.77
2018-07-20T11:17:28.299Z,3.10
2018-07-20T11:19:55.984Z,3.63
2018-07-20T11:22:23.426Z,3.33
2018-07-20T11:24:50.919Z,3.73
2018-07-20T11:27:18.387Z,3.97
2018-07-20T11:29:45.834Z,3.80
2018-07-20T11:32:13.334Z,4.07
2018-07-20T11:34:40.807Z,3.90
2018-07-20T11:37:08.292Z,3.50
2018-07-20T11:39:35.798Z,3.30
2018-07-20T11:42:03.353Z,3.50
2018-07-20T11:44:30.862Z,3.80
2018-07-20T11:46:58.337Z,3.90
2018-07-20T11:49:25.817Z,3.53
2018-07-20T11:51:53.297Z,3.97
2018-07-20T11:54:20.750Z,3.87
2018-07-20T11:56:55.034Z,3.70
2018-07-20T11:59:22.509Z,3.70
2018-07-20T12:01:49.951Z,3.53
2018-07-20T12:04:17.410Z,3.70
2018-07-20T12:06:44.927Z,4.03
2018-07-20T12:09:12.781Z,4.10
2018-07-20T12:11:40.733Z,3.67
2018-07-20T12:14:08.206Z,3.90
2018-07-20T12:16:35.767Z,3.80
2018-07-20T12:19:03.382Z,3.53
2018-07-20T12:21:30.808Z,3.87
2018-07-20T12:23:58.342Z,4.23
2018-07-20T12:26:25.734Z,4.20
2018-07-20T12:28:53.315Z,4.20
2018-07-20T12:31:20.779Z,3.70
2018-07-20T12:33:48.297Z,4.07
2018-07-20T12:36:15.795Z,3.83
2018-07-20T12:38:43.272Z,3.90
2018-07-20T12:41:11.125Z,3.40
2018-07-20T12:43:38.525Z,3.67
2018-07-20T12:46:06.006Z,3.73
2018-07-20T12:48:33.573Z,4.07
2018-07-20T12:51:01.118Z,3.97
2018-07-20T12:53:28.625Z,4.60
2018-07-20T12:55:56.181Z,3.63
2018-07-20T12:58:23.800Z,3.90
2018-07-20T13:00:51.241Z,3.87
2018-07-20T13:03:18.700Z,3.43
2018-07-20T13:05:46.325Z,3.70
2018-07-20T13:08:13.827Z,4.20
2018-07-20T13:10:41.337Z,3.93
2018-07-20T13:13:08.828Z,3.67
2018-07-20T13:15:36.336Z,3.70
2018-07-20T13:18:03.956Z,3.57
2018-07-20T13:20:31.435Z,3.60
2018-07-20T13:22:58.915Z,3.60
2018-07-20T13:25:26.395Z,3.70
2018-07-20T13:27:53.793Z,4.10
2018-07-20T13:30:21.455Z,3.70
2018-07-20T13:32:48.949Z,5.23
2018-07-20T13:35:16.435Z,4.00
2018-07-20T13:37:43.974Z,3.70
2018-07-20T13:40:11.404Z,3.60
2018-07-20T13:42:38.882Z,3.70
2018-07-20T13:45:06.307Z,3.73
2018-07-20T13:47:33.830Z,3.67
2018-07-20T13:50:01.359Z,3.73
2018-07-20T13:52:28.855Z,3.70
2018-07-20T13:54:56.340Z,3.93
2018-07-20T13:57:23.814Z,3.90
2018-07-20T13:59:51.313Z,3.90
2018-07-20T14:02:18.783Z,3.60
2018-07-20T14:04:46.262Z,4.10
2018-07-20T14:07:13.745Z,3.80
2018-07-20T14:09:41.190Z,3.83
2018-07-20T14:12:08.712Z,4.27
2018-07-20T14:14:36.180Z,3.80
2018-07-20T14:17:03.731Z,4.00
2018-07-20T14:19:31.200Z,4.00
2018-07-20T14:21:58.724Z,4.07
2018-07-20T14:24:26.203Z,3.97
2018-07-20T14:26:53.755Z,3.77
2018-07-20T14:29:21.322Z,3.77
2018-07-20T14:31:48.942Z,4.20
2018-07-20T14:34:16.320Z,4.30
2018-07-20T14:36:43.794Z,4.23
2018-07-20T14:39:13.026Z,3.90
2018-07-20T14:41:40.812Z,3.93
2018-07-20T14:44:08.310Z,3.90
2018-07-20T14:46:35.912Z,3.87
2018-07-20T14:49:03.532Z,3.70
2018-07-20T14:51:31.078Z,4.17
2018-07-20T14:53:58.549Z,4.00
2018-07-20T14:56:26.206Z,3.83
2018-07-20T14:58:53.736Z,3.87
2018-07-20T15:01:21.264Z,4.10
2018-07-20T15:03:48.659Z,3.63
2018-07-20T15:06:16.140Z,4.30
2018-07-20T15:08:43.606Z,3.97
2018-07-20T15:11:11.076Z,4.23
2018-07-20T15:13:38.519Z,4.00
2018-07-20T15:16:05.993Z,4.33
2018-07-20T15:18:33.457Z,3.80
2018-07-20T15:21:00.929Z,4.00
2018-07-20T15:23:28.447Z,4.10
2018-07-20T15:25:56.092Z,4.33
2018-07-20T15:28:23.563Z,4.13
2018-07-20T15:30:51.017Z,4.03
2018-07-20T15:33:18.507Z,4.00
2018-07-20T15:35:46.082Z,4.27
2018-07-20T15:38:13.647Z,4.73
2018-07-20T15:40:41.065Z,4.00
2018-07-20T15:43:08.585Z,4.37
2018-07-20T15:45:36.076Z,4.00
2018-07-20T15:48:03.622Z,4.20
2018-07-20T15:50:31.284Z,4.10
2018-07-20T15:53:36.251Z,4.10
2018-07-20T15:55:26.440Z,4.20
2018-07-20T15:57:53.904Z,4.43
2018-07-20T16:00:21.418Z,3.97
2018-07-20T16:02:48.915Z,4.20
2018-07-20T16:05:16.398Z,4.27
2018-07-20T16:07:43.893Z,4.23
2018-07-20T16:10:11.429Z,4.33
2018-07-20T16:12:38.930Z,4.23
2018-07-20T16:15:06.342Z,4.53
2018-07-20T16:17:33.792Z,4.23
2018-07-20T16:20:01.263Z,4.30
2018-07-20T16:22:28.749Z,4.17
2018-07-20T16:24:56.163Z,4.40
2018-07-20T16:27:23.687Z,4.03
2018-07-20T16:29:51.166Z,4.20
2018-07-20T16:32:18.611Z,5.23
2018-07-20T16:34:46.090Z,5.10
2018-07-20T16:37:13.593Z,4.50
2018-07-20T16:39:41.054Z,4.77
2018-07-20T16:42:08.742Z,4.17
2018-07-20T16:44:36.178Z,4.17
2018-07-20T16:47:03.650Z,4.10
2018-07-20T16:49:31.169Z,4.23
2018-07-20T16:51:58.659Z,4.47
2018-07-20T16:54:26.098Z,4.03
2018-07-20T16:56:53.461Z,5.03
2018-07-20T16:59:20.938Z,4.50
2018-07-20T17:01:48.423Z,4.13
2018-07-20T17:04:15.926Z,4.27
2018-07-20T17:06:43.384Z,4.10
2018-07-20T17:09:11.703Z,4.10
2018-07-20T17:11:39.334Z,4.20
2018-07-20T17:14:06.902Z,4.13
2018-07-20T17:16:34.382Z,4.67
2018-07-20T17:19:02.069Z,4.10
2018-07-20T17:21:29.672Z,4.00
2018-07-20T17:23:57.339Z,3.97
2018-07-20T17:26:24.827Z,3.93
2018-07-20T17:28:52.352Z,3.60
2018-07-20T17:31:19.863Z,4.40
2018-07-20T17:33:47.435Z,4.13
2018-07-20T17:36:14.899Z,3.90
2018-07-20T17:38:42.287Z,4.10
2018-07-20T17:41:09.759Z,3.97
2018-07-20T17:43:37.299Z,4.20
2018-07-20T17:46:05.106Z,4.07
2018-07-20T17:48:32.654Z,4.07
2018-07-20T17:51:00.129Z,4.30
2018-07-20T17:53:27.634Z,4.40
2018-07-20T17:55:55.170Z,4.03
2018-07-20T17:58:22.620Z,4.30
2018-07-20T18:00:50.126Z,4.40
2018-07-20T18:03:17.630Z,4.43
2018-07-20T18:05:45.336Z,4.00
2018-07-20T18:08:12.792Z,4.33
2018-07-20T18:10:40.340Z,4.30
2018-07-20T18:13:07.854Z,4.47
2018-07-20T18:15:35.377Z,4.67
2018-07-20T18:18:02.982Z,4.53
2018-07-20T18:20:30.468Z,4.07
2018-07-20T18:22:57.950Z,4.20
2018-07-20T18:25:25.500Z,4.50
2018-07-20T18:27:53.240Z,5.10
2018-07-20T18:30:20.699Z,4.43
2018-07-20T18:32:48.188Z,4.27
2018-07-20T18:35:15.713Z,4.60
2018-07-20T18:37:43.244Z,4.67
2018-07-20T18:40:10.707Z,4.43
2018-07-20T18:42:38.369Z,5.70
2018-07-20T18:45:06.947Z,4.53
2018-07-20T18:47:34.395Z,4.73
2018-07-20T18:50:01.996Z,4.47
2018-07-20T18:52:29.533Z,4.30
2018-07-20T18:54:57.030Z,4.80
2018-07-20T18:57:24.563Z,5.00
2018-07-20T18:59:52.090Z,4.70
2018-07-20T19:02:19.601Z,5.00
2018-07-20T19:04:47.083Z,5.20
2018-07-20T19:07:14.625Z,4.93
2018-07-20T19:09:42.105Z,5.03
2018-07-20T19:12:09.763Z,5.00
2018-07-20T19:14:37.338Z,5.07
2018-07-20T19:17:17.300Z,6.00
2018-07-20T19:19:44.881Z,6.90
2018-07-20T19:22:12.456Z,6.50
2018-07-20T19:24:40.012Z,5.50
2018-07-20T19:27:07.551Z,5.37
2018-07-20T19:29:35.087Z,5.13
2018-07-20T19:32:02.631Z,5.50
2018-07-20T19:34:30.148Z,5.60
2018-07-20T19:36:57.630Z,5.73
2018-07-20T19:39:25.185Z,5.57
2018-07-20T19:41:52.710Z,5.03
2018-07-20T19:44:20.293Z,4.97
2018-07-20T19:46:47.832Z,5.23
2018-07-20T19:49:15.418Z,5.07
2018-07-20T19:51:43.054Z,5.10
2018-07-20T19:54:10.592Z,5.60
2018-07-20T19:56:38.114Z,5.30
2018-07-20T19:59:05.596Z,5.37
2018-07-20T20:01:33.219Z,4.83
2018-07-20T20:04:00.797Z,4.70
2018-07-20T20:06:28.234Z,4.97
2018-07-20T20:08:55.751Z,5.40
2018-07-20T20:11:23.294Z,4.73
2018-07-20T20:13:50.804Z,5.20
2018-07-20T20:16:18.443Z,5.33
2018-07-20T20:18:45.919Z,5.30
2018-07-20T20:21:13.486Z,5.37
2018-07-20T20:23:40.999Z,5.33
2018-07-20T20:26:08.523Z,5.40
2018-07-20T20:28:36.202Z,5.77
2018-07-20T20:31:03.865Z,5.27
2018-07-20T20:33:31.444Z,5.30
2018-07-20T20:35:59.138Z,5.30
2018-07-20T20:38:26.659Z,5.00
2018-07-20T20:40:54.246Z,5.17
2018-07-20T20:43:21.779Z,5.13
2018-07-20T20:45:49.340Z,5.33
2018-07-20T20:48:16.919Z,5.57
2018-07-20T20:50:44.483Z,6.10
2018-07-20T20:53:11.947Z,5.67
2018-07-20T20:55:39.520Z,5.80
2018-07-20T20:58:06.950Z,6.27
2018-07-20T21:00:34.585Z,6.50
2018-07-20T21:03:02.085Z,6.03
2018-07-20T21:05:29.602Z,6.07
2018-07-20T21:07:57.106Z,6.93
2018-07-20T21:10:24.644Z,6.50
2018-07-20T21:12:52.193Z,6.60
2018-07-20T21:15:19.709Z,6.07
2018-07-20T21:17:47.217Z,5.90
2018-07-20T21:20:14.880Z,5.43
2018-07-20T21:22:42.415Z,5.33
2018-07-20T21:25:09.979Z,5.47
2018-07-20T21:27:37.434Z,5.40
2018-07-20T21:30:05.221Z,5.53
2018-07-20T21:32:32.801Z,5.73
2018-07-20T21:35:00.236Z,5.60
2018-07-20T21:37:27.913Z,5.23
2018-07-20T21:39:55.369Z,5.63
2018-07-20T21:42:22.865Z,5.00
2018-07-20T21:44:50.597Z,5.07
2018-07-20T21:47:18.041Z,4.83
2018-07-20T21:49:45.579Z,4.70
2018-07-20T21:52:13.079Z,4.93
2018-07-20T21:54:41.481Z,5.30
2018-07-20T21:57:09.089Z,5.07
2018-07-20T21:59:36.702Z,5.23
2018-07-20T22:02:04.351Z,5.70
2018-07-20T22:04:31.841Z,5.60
2018-07-20T22:06:59.413Z,5.27
2018-07-20T22:09:26.875Z,5.20
2018-07-20T22:11:54.418Z,5.60
2018-07-20T22:14:21.933Z,5.20
2018-07-20T22:16:50.284Z,5.50
2018-07-20T22:19:17.877Z,5.67
2018-07-20T22:21:45.398Z,5.43
2018-07-20T22:24:12.884Z,5.20
2018-07-20T22:26:40.634Z,5.40
2018-07-20T22:29:08.137Z,5.43
2018-07-20T22:31:35.694Z,5.47
2018-07-20T22:34:03.327Z,5.47
2018-07-20T22:36:30.856Z,5.50
2018-07-20T22:38:58.433Z,5.70
2018-07-20T22:41:25.982Z,5.93
2018-07-20T22:43:53.518Z,5.30
2018-07-20T22:46:21.065Z,5.43
2018-07-20T22:48:48.576Z,5.57
2018-07-20T22:51:16.080Z,5.00
2018-07-20T22:53:43.627Z,4.60
2018-07-20T22:56:11.230Z,4.67
2018-07-20T22:58:38.653Z,4.57
2018-07-20T23:01:06.200Z,4.60
2018-07-20T23:03:33.678Z,4.33
2018-07-20T23:06:01.164Z,4.30
2018-07-20T23:08:28.654Z,4.60
2018-07-20T23:10:56.196Z,4.33
2018-07-20T23:13:23.708Z,4.23
2018-07-20T23:15:51.222Z,4.60
2018-07-20T23:18:18.778Z,4.20
2018-07-20T23:20:46.343Z,4.00
2018-07-20T23:23:13.772Z,4.77
2018-07-20T23:25:41.272Z,4.67
2018-07-20T23:28:08.746Z,4.10
2018-07-20T23:30:36.267Z,4.33
2018-07-20T23:33:03.919Z,4.30
2018-07-20T23:35:31.395Z,4.30
2018-07-20T23:37:58.946Z,4.40
2018-07-20T23:40:26.415Z,4.20
2018-07-20T23:42:53.906Z,4.30
2018-07-20T23:45:21.472Z,4.00
2018-07-20T23:47:48.927Z,4.47
2018-07-20T23:50:16.442Z,4.47
2018-07-20T23:52:43.989Z,4.30
2018-07-20T23:55:11.566Z,3.87
2018-07-20T23:57:39.148Z,4.30
